ECISR LEMR-LEVF
Flight info
| Callsign | ECISR |
|---|---|
| Flight time | 0h 33m |
| Altitude | 7000 |
| Route | VFR |
| Aircraft | AP32/L-V/7000 |
Departure
| Time | 2026-04-12 11:22 |
|---|---|
| Airport | La Morgal Airfield (LEMR) |
Arrival
| Time | 2026-04-12 11:55 |
|---|---|
| Airport | Villaframil Airfield (LEVF) |
| Time | Latitude | Longitude | Altitude | Speed | Heading |
|---|---|---|---|---|---|
| 2026-04-12 11:12 | 43.43022 | -5.82152 | 542 ft | 0 kts | 124° |
| 2026-04-12 11:19 | 43.43034 | -5.82137 | 542 ft | 7 kts | 14° |
| 2026-04-12 11:19 | 43.43062 | -5.82356 | 589 ft | 41 kts | 271° |
| 2026-04-12 11:19 | 43.43027 | -5.82753 | 854 ft | 43 kts | 269° |
| 2026-04-12 11:20 | 43.43016 | -5.83254 | 993 ft | 65 kts | 273° |
| 2026-04-12 11:20 | 43.43079 | -5.83986 | 1005 ft | 88 kts | 281° |
| 2026-04-12 11:20 | 43.43142 | -5.84871 | 1038 ft | 93 kts | 270° |
| 2026-04-12 11:20 | 43.43097 | -5.85750 | 1065 ft | 94 kts | 266° |
| 2026-04-12 11:21 | 43.43041 | -5.86645 | 1070 ft | 94 kts | 267° |
| 2026-04-12 11:21 | 43.42934 | -5.87540 | 1107 ft | 94 kts | 264° |
| 2026-04-12 11:21 | 43.43016 | -5.88426 | 1083 ft | 96 kts | 295° |
| 2026-04-12 11:21 | 43.43256 | -5.89260 | 1124 ft | 91 kts | 285° |
| 2026-04-12 11:22 | 43.43350 | -5.90117 | 1177 ft | 93 kts | 275° |
| 2026-04-12 11:22 | 43.43362 | -5.91017 | 1188 ft | 94 kts | 272° |
| 2026-04-12 11:22 | 43.43377 | -5.91915 | 1279 ft | 90 kts | 274° |
| 2026-04-12 11:22 | 43.43407 | -5.92666 | 1636 ft | 67 kts | 277° |
| 2026-04-12 11:23 | 43.43435 | -5.93232 | 1996 ft | 54 kts | 275° |
| 2026-04-12 11:23 | 43.43468 | -5.93740 | 2333 ft | 55 kts | 282° |
| 2026-04-12 11:23 | 43.43526 | -5.94314 | 2553 ft | 68 kts | 282° |
| 2026-04-12 11:23 | 43.43635 | -5.95025 | 2558 ft | 85 kts | 285° |
| 2026-04-12 11:24 | 43.43757 | -5.95855 | 2666 ft | 90 kts | 285° |
| 2026-04-12 11:24 | 43.43916 | -5.96682 | 2792 ft | 90 kts | 288° |
| 2026-04-12 11:24 | 43.44080 | -5.97545 | 2900 ft | 97 kts | 285° |
| 2026-04-12 11:24 | 43.44192 | -5.98468 | 2887 ft | 96 kts | 279° |
| 2026-04-12 11:25 | 43.44270 | -5.99383 | 2900 ft | 103 kts | 278° |
| 2026-04-12 11:25 | 43.44331 | -6.00375 | 2892 ft | 105 kts | 277° |
| 2026-04-12 11:25 | 43.44387 | -6.01392 | 2916 ft | 106 kts | 277° |
| 2026-04-12 11:25 | 43.44443 | -6.02393 | 3006 ft | 104 kts | 277° |
| 2026-04-12 11:26 | 43.44500 | -6.03395 | 3061 ft | 105 kts | 276° |
| 2026-04-12 11:26 | 43.44536 | -6.04395 | 3077 ft | 104 kts | 276° |
| 2026-04-12 11:26 | 43.44557 | -6.05383 | 3207 ft | 102 kts | 275° |
| 2026-04-12 11:26 | 43.44581 | -6.06360 | 3343 ft | 102 kts | 274° |
| 2026-04-12 11:27 | 43.44605 | -6.07317 | 3391 ft | 102 kts | 274° |
| 2026-04-12 11:27 | 43.44628 | -6.08314 | 3378 ft | 105 kts | 274° |
| 2026-04-12 11:27 | 43.44634 | -6.09288 | 3391 ft | 102 kts | 269° |
| 2026-04-12 11:27 | 43.44608 | -6.10257 | 3395 ft | 101 kts | 270° |
| 2026-04-12 11:28 | 43.44588 | -6.11217 | 3393 ft | 100 kts | 270° |
| 2026-04-12 11:28 | 43.44569 | -6.12170 | 3397 ft | 102 kts | 269° |
| 2026-04-12 11:28 | 43.44551 | -6.13176 | 3397 ft | 107 kts | 269° |
| 2026-04-12 11:28 | 43.44534 | -6.14182 | 3402 ft | 105 kts | 269° |
| 2026-04-12 11:29 | 43.44514 | -6.15205 | 3385 ft | 107 kts | 268° |
| 2026-04-12 11:29 | 43.44479 | -6.16195 | 3398 ft | 103 kts | 267° |
| 2026-04-12 11:29 | 43.44441 | -6.17183 | 3385 ft | 101 kts | 267° |
| 2026-04-12 11:29 | 43.44400 | -6.18114 | 3402 ft | 92 kts | 266° |
| 2026-04-12 11:30 | 43.44356 | -6.19054 | 3401 ft | 102 kts | 266° |
| 2026-04-12 11:30 | 43.44309 | -6.20054 | 3401 ft | 106 kts | 267° |
| 2026-04-12 11:30 | 43.44273 | -6.21062 | 3401 ft | 104 kts | 268° |
| 2026-04-12 11:30 | 43.44236 | -6.22070 | 3400 ft | 107 kts | 268° |
| 2026-04-12 11:31 | 43.44200 | -6.23102 | 3404 ft | 108 kts | 268° |
| 2026-04-12 11:31 | 43.44161 | -6.24132 | 3395 ft | 106 kts | 268° |
| 2026-04-12 11:31 | 43.44122 | -6.25148 | 3404 ft | 107 kts | 268° |
| 2026-04-12 11:31 | 43.44077 | -6.26164 | 3398 ft | 108 kts | 267° |
| 2026-04-12 11:32 | 43.44023 | -6.27182 | 3398 ft | 107 kts | 267° |
| 2026-04-12 11:32 | 43.43972 | -6.28199 | 3386 ft | 105 kts | 266° |
| 2026-04-12 11:32 | 43.43924 | -6.29182 | 3403 ft | 103 kts | 266° |
| 2026-04-12 11:32 | 43.43855 | -6.30218 | 3398 ft | 112 kts | 265° |
| 2026-04-12 11:33 | 43.43781 | -6.31284 | 3394 ft | 110 kts | 265° |
| 2026-04-12 11:33 | 43.43707 | -6.32330 | 3400 ft | 111 kts | 265° |
| 2026-04-12 11:33 | 43.43633 | -6.33386 | 3395 ft | 110 kts | 266° |
| 2026-04-12 11:33 | 43.43567 | -6.34422 | 3390 ft | 108 kts | 266° |
| 2026-04-12 11:34 | 43.43502 | -6.35452 | 3392 ft | 107 kts | 266° |
| 2026-04-12 11:34 | 43.43436 | -6.36462 | 3396 ft | 109 kts | 266° |
| 2026-04-12 11:34 | 43.43348 | -6.37491 | 3382 ft | 107 kts | 263° |
| 2026-04-12 11:34 | 43.43256 | -6.38496 | 3400 ft | 107 kts | 265° |
| 2026-04-12 11:35 | 43.43162 | -6.39523 | 3399 ft | 108 kts | 265° |
| 2026-04-12 11:35 | 43.43176 | -6.40541 | 3389 ft | 105 kts | 278° |
| 2026-04-12 11:35 | 43.43594 | -6.41287 | 3398 ft | 104 kts | 326° |
| 2026-04-12 11:35 | 43.43975 | -6.42081 | 3388 ft | 102 kts | 279° |
| 2026-04-12 11:36 | 43.44088 | -6.43041 | 3392 ft | 101 kts | 282° |
| 2026-04-12 11:36 | 43.44223 | -6.43973 | 3401 ft | 99 kts | 282° |
| 2026-04-12 11:36 | 43.44373 | -6.44923 | 3393 ft | 101 kts | 284° |
| 2026-04-12 11:36 | 43.44497 | -6.45888 | 3398 ft | 108 kts | 281° |
| 2026-04-12 11:37 | 43.44647 | -6.46909 | 3384 ft | 108 kts | 281° |
| 2026-04-12 11:37 | 43.44813 | -6.47917 | 3393 ft | 110 kts | 282° |
| 2026-04-12 11:37 | 43.45015 | -6.48916 | 3397 ft | 109 kts | 283° |
| 2026-04-12 11:37 | 43.45206 | -6.49930 | 3390 ft | 109 kts | 282° |
| 2026-04-12 11:38 | 43.45363 | -6.50927 | 3389 ft | 102 kts | 278° |
| 2026-04-12 11:38 | 43.45527 | -6.51855 | 3386 ft | 97 kts | 282° |
| 2026-04-12 11:38 | 43.45684 | -6.52757 | 3393 ft | 98 kts | 281° |
| 2026-04-12 11:38 | 43.45836 | -6.53643 | 3392 ft | 91 kts | 282° |
| 2026-04-12 11:39 | 43.45988 | -6.54521 | 3404 ft | 96 kts | 281° |
| 2026-04-12 11:39 | 43.46123 | -6.55363 | 3396 ft | 85 kts | 281° |
| 2026-04-12 11:39 | 43.46273 | -6.56136 | 3416 ft | 88 kts | 282° |
| 2026-04-12 11:39 | 43.46447 | -6.57017 | 3405 ft | 100 kts | 281° |
| 2026-04-12 11:40 | 43.46606 | -6.57938 | 3394 ft | 99 kts | 282° |
| 2026-04-12 11:40 | 43.46758 | -6.58868 | 3401 ft | 102 kts | 281° |
| 2026-04-12 11:40 | 43.46923 | -6.59839 | 3401 ft | 104 kts | 282° |
| 2026-04-12 11:40 | 43.47081 | -6.60804 | 3400 ft | 102 kts | 282° |
| 2026-04-12 11:41 | 43.47242 | -6.61732 | 3434 ft | 96 kts | 283° |
| 2026-04-12 11:41 | 43.47441 | -6.62544 | 3578 ft | 84 kts | 285° |
| 2026-04-12 11:41 | 43.47625 | -6.63362 | 3534 ft | 91 kts | 287° |
| 2026-04-12 11:41 | 43.47860 | -6.64162 | 3449 ft | 90 kts | 292° |
| 2026-04-12 11:42 | 43.48109 | -6.64870 | 3840 ft | 76 kts | 292° |
| 2026-04-12 11:42 | 43.48339 | -6.65513 | 4168 ft | 75 kts | 294° |
| 2026-04-12 11:42 | 43.48673 | -6.66115 | 4362 ft | 87 kts | 311° |
| 2026-04-12 11:43 | 43.49528 | -6.67303 | 4767 ft | 84 kts | 308° |
| 2026-04-12 11:43 | 43.49960 | -6.67914 | 4858 ft | 91 kts | 309° |
| 2026-04-12 11:43 | 43.50408 | -6.68498 | 5045 ft | 85 kts | 306° |
| 2026-04-12 11:43 | 43.50789 | -6.69129 | 5137 ft | 90 kts | 301° |
| 2026-04-12 11:44 | 43.51097 | -6.69867 | 5295 ft | 86 kts | 291° |
| 2026-04-12 11:44 | 43.51242 | -6.70646 | 5417 ft | 84 kts | 278° |
| 2026-04-12 11:44 | 43.51346 | -6.71454 | 5506 ft | 89 kts | 283° |
| 2026-04-12 11:44 | 43.51510 | -6.72312 | 5504 ft | 94 kts | 287° |
| 2026-04-12 11:45 | 43.51704 | -6.73157 | 5572 ft | 91 kts | 286° |
| 2026-04-12 11:45 | 43.51838 | -6.73996 | 5596 ft | 90 kts | 277° |
| 2026-04-12 11:45 | 43.51930 | -6.74845 | 5651 ft | 90 kts | 281° |
| 2026-04-12 11:45 | 43.52056 | -6.75695 | 5685 ft | 92 kts | 283° |
| 2026-04-12 11:46 | 43.52153 | -6.76581 | 5699 ft | 93 kts | 277° |
| 2026-04-12 11:46 | 43.52304 | -6.77440 | 5729 ft | 93 kts | 287° |
| 2026-04-12 11:46 | 43.52503 | -6.78273 | 5742 ft | 94 kts | 288° |
| 2026-04-12 11:46 | 43.52721 | -6.79121 | 5849 ft | 89 kts | 289° |
| 2026-04-12 11:47 | 43.52821 | -6.79997 | 5841 ft | 98 kts | 267° |
| 2026-04-12 11:47 | 43.52727 | -6.80901 | 5949 ft | 93 kts | 266° |
| 2026-04-12 11:47 | 43.52820 | -6.81794 | 5917 ft | 98 kts | 286° |
| 2026-04-12 11:47 | 43.53060 | -6.82670 | 5924 ft | 97 kts | 290° |
| 2026-04-12 11:48 | 43.53302 | -6.83535 | 5938 ft | 95 kts | 287° |
| 2026-04-12 11:48 | 43.53503 | -6.84378 | 5972 ft | 92 kts | 288° |
| 2026-04-12 11:48 | 43.53681 | -6.85290 | 5862 ft | 101 kts | 283° |
| 2026-04-12 11:48 | 43.53829 | -6.86240 | 5796 ft | 100 kts | 283° |
| 2026-04-12 11:49 | 43.53982 | -6.87181 | 5725 ft | 100 kts | 284° |
| 2026-04-12 11:49 | 43.54110 | -6.88072 | 5505 ft | 97 kts | 281° |
| 2026-04-12 11:49 | 43.54272 | -6.89070 | 5290 ft | 115 kts | 282° |
| 2026-04-12 11:49 | 43.54462 | -6.90146 | 5178 ft | 115 kts | 283° |
| 2026-04-12 11:50 | 43.54595 | -6.91203 | 5094 ft | 107 kts | 272° |
| 2026-04-12 11:50 | 43.54651 | -6.92085 | 4855 ft | 84 kts | 279° |
| 2026-04-12 11:50 | 43.54730 | -6.92936 | 4647 ft | 97 kts | 277° |
| 2026-04-12 11:50 | 43.54836 | -6.93854 | 4536 ft | 97 kts | 280° |
| 2026-04-12 11:51 | 43.54939 | -6.94697 | 4356 ft | 81 kts | 280° |
| 2026-04-12 11:51 | 43.55062 | -6.95445 | 4076 ft | 81 kts | 286° |
| 2026-04-12 11:51 | 43.55255 | -6.96200 | 3739 ft | 85 kts | 297° |
| 2026-04-12 11:51 | 43.55519 | -6.96899 | 3457 ft | 81 kts | 294° |
| 2026-04-12 11:52 | 43.55734 | -6.97614 | 3180 ft | 81 kts | 293° |
| 2026-04-12 11:52 | 43.55931 | -6.98334 | 2898 ft | 80 kts | 287° |
| 2026-04-12 11:52 | 43.56043 | -6.99090 | 2606 ft | 81 kts | 276° |
| 2026-04-12 11:52 | 43.56090 | -6.99854 | 2365 ft | 77 kts | 276° |
| 2026-04-12 11:53 | 43.56131 | -7.00555 | 2176 ft | 73 kts | 271° |
| 2026-04-12 11:53 | 43.56126 | -7.01297 | 1875 ft | 80 kts | 264° |
| 2026-04-12 11:53 | 43.56023 | -7.02037 | 1645 ft | 76 kts | 261° |
| 2026-04-12 11:53 | 43.55963 | -7.02741 | 1455 ft | 72 kts | 264° |
| 2026-04-12 11:54 | 43.55931 | -7.03425 | 1260 ft | 72 kts | 267° |
| 2026-04-12 11:54 | 43.55911 | -7.04062 | 1172 ft | 57 kts | 266° |
| 2026-04-12 11:54 | 43.55882 | -7.04586 | 1070 ft | 51 kts | 261° |
| 2026-04-12 11:54 | 43.55833 | -7.05056 | 945 ft | 50 kts | 262° |
| 2026-04-12 11:55 | 43.55787 | -7.05528 | 815 ft | 50 kts | 263° |
| 2026-04-12 11:55 | 43.55733 | -7.06008 | 693 ft | 51 kts | 261° |
| 2026-04-12 11:55 | 43.55668 | -7.06482 | 571 ft | 50 kts | 258° |
| 2026-04-12 11:55 | 43.55589 | -7.06952 | 465 ft | 49 kts | 256° |
| 2026-04-12 11:56 | 43.55509 | -7.07380 | 343 ft | 45 kts | 257° |
| 2026-04-12 11:56 | 43.55437 | -7.07789 | 230 ft | 43 kts | 256° |
| 2026-04-12 11:56 | 43.55362 | -7.08191 | 147 ft | 43 kts | 255° |
| 2026-04-12 11:56 | 43.55296 | -7.08557 | 88 ft | 33 kts | 256° |
| 2026-04-12 11:57 | 43.55252 | -7.08795 | 86 ft | 22 kts | 256° |
| 2026-04-12 11:57 | 43.55211 | -7.08911 | 85 ft | 4 kts | 130° |
| 2026-04-12 11:57 | 43.55209 | -7.08908 | 85 ft | 4 kts | 129° |